sensor_id;sensor_type;location;lat;lon;timestamp;P1;durP1;ratioP1;P2;durP2;ratioP2
71202;SDS011;58929;47.490;19.090;2023-04-02T00:00:09;2.58;;;1.25;;
71202;SDS011;58929;47.490;19.090;2023-04-02T00:02:47;2.13;;;1.25;;
71202;SDS011;58929;47.490;19.090;2023-04-02T00:05:36;4.20;;;0.85;;
71202;SDS011;58929;47.490;19.090;2023-04-02T00:08:17;2.03;;;1.00;;
71202;SDS011;58929;47.490;19.090;2023-04-02T00:10:47;1.15;;;0.80;;
71202;SDS011;58929;47.490;19.090;2023-04-02T00:13:20;1.60;;;0.90;;
71202;SDS011;58929;47.490;19.090;2023-04-02T00:15:49;2.25;;;0.82;;
71202;SDS011;58929;47.490;19.090;2023-04-02T00:18:19;0.65;;;0.50;;
71202;SDS011;58929;47.490;19.090;2023-04-02T00:20:48;1.58;;;0.90;;
71202;SDS011;58929;47.490;19.090;2023-04-02T00:23:17;1.25;;;0.90;;
71202;SDS011;58929;47.490;19.090;2023-04-02T00:25:47;2.83;;;0.77;;
71202;SDS011;58929;47.490;19.090;2023-04-02T00:28:16;1.92;;;0.82;;
71202;SDS011;58929;47.490;19.090;2023-04-02T00:30:45;1.67;;;0.93;;
71202;SDS011;58929;47.490;19.090;2023-04-02T00:33:14;1.90;;;1.10;;
71202;SDS011;58929;47.490;19.090;2023-04-02T00:35:43;1.48;;;0.90;;
71202;SDS011;58929;47.490;19.090;2023-04-02T00:38:14;1.95;;;1.00;;
71202;SDS011;58929;47.490;19.090;2023-04-02T00:40:44;1.20;;;0.90;;
71202;SDS011;58929;47.490;19.090;2023-04-02T00:43:16;0.90;;;0.70;;
71202;SDS011;58929;47.490;19.090;2023-04-02T00:45:48;3.97;;;1.05;;
71202;SDS011;58929;47.490;19.090;2023-04-02T00:48:32;2.10;;;0.98;;
71202;SDS011;58929;47.490;19.090;2023-04-02T00:51:07;0.73;;;0.73;;
71202;SDS011;58929;47.490;19.090;2023-04-02T00:53:37;1.77;;;0.80;;
71202;SDS011;58929;47.490;19.090;2023-04-02T00:56:10;0.82;;;0.70;;
71202;SDS011;58929;47.490;19.090;2023-04-02T00:58:41;1.20;;;0.80;;
71202;SDS011;58929;47.490;19.090;2023-04-02T01:01:15;1.15;;;0.85;;
71202;SDS011;58929;47.490;19.090;2023-04-02T01:03:51;1.52;;;0.95;;
71202;SDS011;58929;47.490;19.090;2023-04-02T01:06:25;2.65;;;0.80;;
71202;SDS011;58929;47.490;19.090;2023-04-02T01:09:00;1.60;;;0.70;;
71202;SDS011;58929;47.490;19.090;2023-04-02T01:11:36;1.02;;;0.70;;
71202;SDS011;58929;47.490;19.090;2023-04-02T01:14:08;0.77;;;0.68;;
71202;SDS011;58929;47.490;19.090;2023-04-02T01:16:40;0.82;;;0.70;;
71202;SDS011;58929;47.490;19.090;2023-04-02T01:19:18;0.98;;;0.80;;
71202;SDS011;58929;47.490;19.090;2023-04-02T01:21:53;1.48;;;0.90;;
71202;SDS011;58929;47.490;19.090;2023-04-02T01:24:27;1.17;;;0.90;;
71202;SDS011;58929;47.490;19.090;2023-04-02T01:26:56;0.70;;;0.70;;
71202;SDS011;58929;47.490;19.090;2023-04-02T01:29:27;1.10;;;0.75;;
71202;SDS011;58929;47.490;19.090;2023-04-02T01:31:56;1.30;;;0.88;;
71202;SDS011;58929;47.490;19.090;2023-04-02T01:34:25;1.10;;;0.77;;
71202;SDS011;58929;47.490;19.090;2023-04-02T01:39:46;2.17;;;0.70;;
71202;SDS011;58929;47.490;19.090;2023-04-02T01:42:19;1.50;;;0.85;;
71202;SDS011;58929;47.490;19.090;2023-04-02T01:44:49;0.98;;;0.90;;
71202;SDS011;58929;47.490;19.090;2023-04-02T01:47:18;1.17;;;0.93;;
71202;SDS011;58929;47.490;19.090;2023-04-02T01:49:46;1.38;;;0.77;;
71202;SDS011;58929;47.490;19.090;2023-04-02T01:52:15;2.08;;;1.65;;
71202;SDS011;58929;47.490;19.090;2023-04-02T01:54:45;1.10;;;0.93;;
71202;SDS011;58929;47.490;19.090;2023-04-02T01:57:14;1.05;;;0.88;;
71202;SDS011;58929;47.490;19.090;2023-04-02T01:59:43;1.30;;;0.88;;
71202;SDS011;58929;47.490;19.090;2023-04-02T02:02:13;0.50;;;0.50;;
71202;SDS011;58929;47.490;19.090;2023-04-02T02:04:42;1.60;;;0.57;;
71202;SDS011;58929;47.490;19.090;2023-04-02T02:07:12;0.68;;;0.68;;
71202;SDS011;58929;47.490;19.090;2023-04-02T02:09:44;1.50;;;0.70;;
71202;SDS011;58929;47.490;19.090;2023-04-02T02:12:13;2.85;;;0.70;;
71202;SDS011;58929;47.490;19.090;2023-04-02T02:14:44;1.10;;;0.80;;
71202;SDS011;58929;47.490;19.090;2023-04-02T02:17:15;1.05;;;0.70;;
71202;SDS011;58929;47.490;19.090;2023-04-02T02:19:44;1.10;;;0.77;;
71202;SDS011;58929;47.490;19.090;2023-04-02T02:22:16;0.95;;;0.70;;
71202;SDS011;58929;47.490;19.090;2023-04-02T02:24:45;0.70;;;0.70;;
71202;SDS011;58929;47.490;19.090;2023-04-02T02:27:39;0.50;;;0.50;;
71202;SDS011;58929;47.490;19.090;2023-04-02T02:30:11;1.42;;;0.70;;
71202;SDS011;58929;47.490;19.090;2023-04-02T02:32:44;1.33;;;0.75;;
71202;SDS011;58929;47.490;19.090;2023-04-02T02:35:15;1.05;;;0.90;;
71202;SDS011;58929;47.490;19.090;2023-04-02T02:37:46;1.50;;;0.75;;
71202;SDS011;58929;47.490;19.090;2023-04-02T02:40:19;1.23;;;0.77;;
71202;SDS011;58929;47.490;19.090;2023-04-02T02:42:49;0.65;;;0.60;;
71202;SDS011;58929;47.490;19.090;2023-04-02T02:45:19;0.85;;;0.70;;
71202;SDS011;58929;47.490;19.090;2023-04-02T02:47:50;0.98;;;0.70;;
71202;SDS011;58929;47.490;19.090;2023-04-02T02:50:20;1.08;;;0.70;;
71202;SDS011;58929;47.490;19.090;2023-04-02T02:52:52;0.60;;;0.60;;
71202;SDS011;58929;47.490;19.090;2023-04-02T02:55:20;1.60;;;1.02;;
71202;SDS011;58929;47.490;19.090;2023-04-02T02:58:05;1.20;;;0.70;;
71202;SDS011;58929;47.490;19.090;2023-04-02T03:00:43;0.90;;;0.60;;
71202;SDS011;58929;47.490;19.090;2023-04-02T03:03:15;2.15;;;0.75;;
71202;SDS011;58929;47.490;19.090;2023-04-02T03:05:49;0.88;;;0.80;;
71202;SDS011;58929;47.490;19.090;2023-04-02T03:08:21;0.70;;;0.70;;
71202;SDS011;58929;47.490;19.090;2023-04-02T03:10:53;0.88;;;0.70;;
71202;SDS011;58929;47.490;19.090;2023-04-02T03:13:23;0.90;;;0.60;;
71202;SDS011;58929;47.490;19.090;2023-04-02T03:15:56;0.95;;;0.70;;
71202;SDS011;58929;47.490;19.090;2023-04-02T03:18:31;1.00;;;0.90;;
71202;SDS011;58929;47.490;19.090;2023-04-02T03:21:04;1.13;;;0.95;;
71202;SDS011;58929;47.490;19.090;2023-04-02T03:23:34;0.60;;;0.60;;
71202;SDS011;58929;47.490;19.090;2023-04-02T03:26:03;0.82;;;0.82;;
71202;SDS011;58929;47.490;19.090;2023-04-02T03:28:34;2.33;;;0.68;;
71202;SDS011;58929;47.490;19.090;2023-04-02T03:31:05;1.08;;;0.65;;
71202;SDS011;58929;47.490;19.090;2023-04-02T03:33:37;5.32;;;0.90;;
71202;SDS011;58929;47.490;19.090;2023-04-02T03:36:12;0.80;;;0.80;;
71202;SDS011;58929;47.490;19.090;2023-04-02T03:38:42;3.72;;;0.90;;
71202;SDS011;58929;47.490;19.090;2023-04-02T03:41:14;0.88;;;0.70;;
71202;SDS011;58929;47.490;19.090;2023-04-02T03:43:44;0.85;;;0.60;;
71202;SDS011;58929;47.490;19.090;2023-04-02T03:46:17;1.17;;;0.80;;
71202;SDS011;58929;47.490;19.090;2023-04-02T03:48:50;1.13;;;0.80;;
71202;SDS011;58929;47.490;19.090;2023-04-02T03:51:19;0.82;;;0.80;;
71202;SDS011;58929;47.490;19.090;2023-04-02T03:53:50;0.95;;;0.60;;
71202;SDS011;58929;47.490;19.090;2023-04-02T03:56:21;0.80;;;0.80;;
71202;SDS011;58929;47.490;19.090;2023-04-02T03:58:51;1.00;;;0.93;;
71202;SDS011;58929;47.490;19.090;2023-04-02T04:01:22;1.20;;;1.10;;
71202;SDS011;58929;47.490;19.090;2023-04-02T04:03:54;1.02;;;0.93;;
71202;SDS011;58929;47.490;19.090;2023-04-02T04:06:24;2.83;;;1.00;;
71202;SDS011;58929;47.490;19.090;2023-04-02T04:08:55;3.08;;;1.10;;
71202;SDS011;58929;47.490;19.090;2023-04-02T04:11:24;2.83;;;1.40;;
71202;SDS011;58929;47.490;19.090;2023-04-02T04:13:55;0.75;;;0.75;;
71202;SDS011;58929;47.490;19.090;2023-04-02T04:16:25;1.55;;;0.70;;
71202;SDS011;58929;47.490;19.090;2023-04-02T04:18:55;1.25;;;0.95;;
71202;SDS011;58929;47.490;19.090;2023-04-02T04:21:31;2.83;;;1.73;;
71202;SDS011;58929;47.490;19.090;2023-04-02T04:24:13;1.55;;;1.15;;
71202;SDS011;58929;47.490;19.090;2023-04-02T04:26:44;1.48;;;0.80;;
71202;SDS011;58929;47.490;19.090;2023-04-02T04:29:18;1.27;;;0.80;;
71202;SDS011;58929;47.490;19.090;2023-04-02T04:31:53;1.63;;;0.90;;
71202;SDS011;58929;47.490;19.090;2023-04-02T04:34:30;2.15;;;0.80;;
71202;SDS011;58929;47.490;19.090;2023-04-02T04:37:02;1.50;;;1.13;;
71202;SDS011;58929;47.490;19.090;2023-04-02T04:39:38;1.05;;;1.00;;
71202;SDS011;58929;47.490;19.090;2023-04-02T04:42:10;2.15;;;1.13;;
71202;SDS011;58929;47.490;19.090;2023-04-02T04:44:43;1.45;;;1.13;;
71202;SDS011;58929;47.490;19.090;2023-04-02T04:47:14;1.10;;;1.00;;
71202;SDS011;58929;47.490;19.090;2023-04-02T04:49:47;1.23;;;1.05;;
71202;SDS011;58929;47.490;19.090;2023-04-02T04:52:19;1.45;;;1.17;;
71202;SDS011;58929;47.490;19.090;2023-04-02T04:54:48;1.20;;;0.98;;
71202;SDS011;58929;47.490;19.090;2023-04-02T04:57:26;4.03;;;3.03;;
71202;SDS011;58929;47.490;19.090;2023-04-02T04:59:58;1.90;;;1.30;;
71202;SDS011;58929;47.490;19.090;2023-04-02T05:02:34;1.52;;;1.23;;
71202;SDS011;58929;47.490;19.090;2023-04-02T05:05:14;2.88;;;1.30;;
71202;SDS011;58929;47.490;19.090;2023-04-02T05:07:44;1.60;;;1.10;;
71202;SDS011;58929;47.490;19.090;2023-04-02T05:10:16;1.38;;;1.08;;
71202;SDS011;58929;47.490;19.090;2023-04-02T05:12:50;1.33;;;1.23;;
71202;SDS011;58929;47.490;19.090;2023-04-02T05:15:21;1.75;;;1.33;;
71202;SDS011;58929;47.490;19.090;2023-04-02T05:17:52;2.15;;;1.05;;
71202;SDS011;58929;47.490;19.090;2023-04-02T05:20:23;4.00;;;1.08;;
71202;SDS011;58929;47.490;19.090;2023-04-02T05:22:56;1.20;;;1.10;;
71202;SDS011;58929;47.490;19.090;2023-04-02T05:25:25;2.42;;;1.23;;
71202;SDS011;58929;47.490;19.090;2023-04-02T05:27:58;1.63;;;1.33;;
71202;SDS011;58929;47.490;19.090;2023-04-02T05:30:39;1.10;;;1.00;;
71202;SDS011;58929;47.490;19.090;2023-04-02T05:33:16;2.72;;;1.40;;
71202;SDS011;58929;47.490;19.090;2023-04-02T05:35:46;1.95;;;1.42;;
71202;SDS011;58929;47.490;19.090;2023-04-02T05:38:16;1.58;;;1.10;;
71202;SDS011;58929;47.490;19.090;2023-04-02T05:40:46;1.10;;;1.00;;
71202;SDS011;58929;47.490;19.090;2023-04-02T05:43:17;1.70;;;1.10;;
71202;SDS011;58929;47.490;19.090;2023-04-02T05:45:50;1.65;;;1.25;;
71202;SDS011;58929;47.490;19.090;2023-04-02T05:48:21;2.42;;;1.50;;
71202;SDS011;58929;47.490;19.090;2023-04-02T05:50:56;1.55;;;1.25;;
71202;SDS011;58929;47.490;19.090;2023-04-02T05:53:31;1.98;;;1.60;;
71202;SDS011;58929;47.490;19.090;2023-04-02T05:56:01;1.58;;;1.10;;
71202;SDS011;58929;47.490;19.090;2023-04-02T05:58:33;2.30;;;1.88;;
71202;SDS011;58929;47.490;19.090;2023-04-02T06:01:28;1.42;;;1.30;;
71202;SDS011;58929;47.490;19.090;2023-04-02T06:04:05;2.25;;;1.67;;
71202;SDS011;58929;47.490;19.090;2023-04-02T06:06:46;1.98;;;1.40;;
71202;SDS011;58929;47.490;19.090;2023-04-02T06:09:16;1.38;;;1.27;;
71202;SDS011;58929;47.490;19.090;2023-04-02T06:11:48;1.73;;;1.23;;
71202;SDS011;58929;47.490;19.090;2023-04-02T06:14:18;2.10;;;1.40;;
71202;SDS011;58929;47.490;19.090;2023-04-02T06:16:47;2.85;;;1.73;;
71202;SDS011;58929;47.490;19.090;2023-04-02T06:19:18;2.28;;;1.40;;
71202;SDS011;58929;47.490;19.090;2023-04-02T06:21:49;2.78;;;1.65;;
71202;SDS011;58929;47.490;19.090;2023-04-02T06:24:22;1.55;;;1.45;;
71202;SDS011;58929;47.490;19.090;2023-04-02T06:26:52;2.08;;;1.70;;
71202;SDS011;58929;47.490;19.090;2023-04-02T06:29:26;2.55;;;1.50;;
71202;SDS011;58929;47.490;19.090;2023-04-02T06:31:56;3.42;;;1.60;;
71202;SDS011;58929;47.490;19.090;2023-04-02T06:34:26;2.00;;;1.63;;
71202;SDS011;58929;47.490;19.090;2023-04-02T06:37:00;2.40;;;1.58;;
71202;SDS011;58929;47.490;19.090;2023-04-02T06:39:31;2.72;;;1.80;;
71202;SDS011;58929;47.490;19.090;2023-04-02T06:42:05;2.53;;;1.65;;
71202;SDS011;58929;47.490;19.090;2023-04-02T06:44:59;2.47;;;1.80;;
71202;SDS011;58929;47.490;19.090;2023-04-02T06:47:48;3.25;;;1.70;;
71202;SDS011;58929;47.490;19.090;2023-04-02T06:50:41;1.75;;;1.38;;
71202;SDS011;58929;47.490;19.090;2023-04-02T06:53:16;2.10;;;1.60;;
71202;SDS011;58929;47.490;19.090;2023-04-02T06:55:47;2.53;;;1.35;;
71202;SDS011;58929;47.490;19.090;2023-04-02T06:58:22;3.70;;;2.40;;
71202;SDS011;58929;47.490;19.090;2023-04-02T07:00:51;4.75;;;1.70;;
71202;SDS011;58929;47.490;19.090;2023-04-02T07:03:28;2.50;;;1.48;;
71202;SDS011;58929;47.490;19.090;2023-04-02T07:06:04;2.63;;;1.63;;
71202;SDS011;58929;47.490;19.090;2023-04-02T07:08:34;2.90;;;1.60;;
71202;SDS011;58929;47.490;19.090;2023-04-02T07:11:03;2.88;;;1.60;;
71202;SDS011;58929;47.490;19.090;2023-04-02T07:13:31;1.67;;;1.58;;
71202;SDS011;58929;47.490;19.090;2023-04-02T07:15:59;2.53;;;1.75;;
71202;SDS011;58929;47.490;19.090;2023-04-02T07:18:28;1.83;;;1.60;;
71202;SDS011;58929;47.490;19.090;2023-04-02T07:20:59;2.38;;;1.70;;
71202;SDS011;58929;47.490;19.090;2023-04-02T07:23:27;3.40;;;1.63;;
71202;SDS011;58929;47.490;19.090;2023-04-02T07:25:57;9.75;;;5.88;;
71202;SDS011;58929;47.490;19.090;2023-04-02T07:28:25;2.85;;;1.70;;
71202;SDS011;58929;47.490;19.090;2023-04-02T07:30:53;2.63;;;1.65;;
71202;SDS011;58929;47.490;19.090;2023-04-02T07:33:22;3.50;;;1.73;;
71202;SDS011;58929;47.490;19.090;2023-04-02T07:35:51;1.80;;;1.40;;
71202;SDS011;58929;47.490;19.090;2023-04-02T07:38:19;1.63;;;1.48;;
71202;SDS011;58929;47.490;19.090;2023-04-02T07:40:47;4.68;;;1.77;;
71202;SDS011;58929;47.490;19.090;2023-04-02T07:43:17;2.38;;;1.60;;
71202;SDS011;58929;47.490;19.090;2023-04-02T07:45:45;1.42;;;1.30;;
71202;SDS011;58929;47.490;19.090;2023-04-02T07:48:13;1.90;;;1.63;;
71202;SDS011;58929;47.490;19.090;2023-04-02T07:50:41;2.55;;;1.70;;
71202;SDS011;58929;47.490;19.090;2023-04-02T07:53:13;2.30;;;1.70;;
71202;SDS011;58929;47.490;19.090;2023-04-02T07:55:43;2.97;;;2.15;;
71202;SDS011;58929;47.490;19.090;2023-04-02T07:58:11;2.35;;;1.50;;
71202;SDS011;58929;47.490;19.090;2023-04-02T08:00:40;2.78;;;1.80;;
71202;SDS011;58929;47.490;19.090;2023-04-02T08:03:09;2.25;;;1.95;;
71202;SDS011;58929;47.490;19.090;2023-04-02T08:05:38;1.63;;;1.48;;
71202;SDS011;58929;47.490;19.090;2023-04-02T08:08:07;2.47;;;2.00;;
71202;SDS011;58929;47.490;19.090;2023-04-02T08:10:35;1.65;;;1.50;;
71202;SDS011;58929;47.490;19.090;2023-04-02T08:13:03;2.42;;;1.45;;
71202;SDS011;58929;47.490;19.090;2023-04-02T08:15:31;2.25;;;1.83;;
71202;SDS011;58929;47.490;19.090;2023-04-02T08:18:01;2.20;;;1.73;;
71202;SDS011;58929;47.490;19.090;2023-04-02T08:20:29;5.15;;;2.20;;
71202;SDS011;58929;47.490;19.090;2023-04-02T08:22:57;2.22;;;2.03;;
71202;SDS011;58929;47.490;19.090;2023-04-02T08:25:26;3.05;;;2.00;;
71202;SDS011;58929;47.490;19.090;2023-04-02T08:27:54;2.83;;;2.10;;
71202;SDS011;58929;47.490;19.090;2023-04-02T08:30:22;2.95;;;2.10;;
71202;SDS011;58929;47.490;19.090;2023-04-02T08:32:51;2.90;;;1.90;;
71202;SDS011;58929;47.490;19.090;2023-04-02T08:35:20;2.97;;;2.17;;
71202;SDS011;58929;47.490;19.090;2023-04-02T08:37:49;3.30;;;2.42;;
71202;SDS011;58929;47.490;19.090;2023-04-02T08:40:19;4.05;;;3.17;;
71202;SDS011;58929;47.490;19.090;2023-04-02T08:42:51;2.42;;;2.22;;
71202;SDS011;58929;47.490;19.090;2023-04-02T08:45:28;4.15;;;2.65;;
71202;SDS011;58929;47.490;19.090;2023-04-02T08:47:58;3.30;;;2.15;;
71202;SDS011;58929;47.490;19.090;2023-04-02T08:50:30;4.35;;;2.28;;
71202;SDS011;58929;47.490;19.090;2023-04-02T08:53:00;3.05;;;1.95;;
71202;SDS011;58929;47.490;19.090;2023-04-02T08:55:31;3.25;;;2.03;;
71202;SDS011;58929;47.490;19.090;2023-04-02T08:58:04;5.18;;;2.47;;
71202;SDS011;58929;47.490;19.090;2023-04-02T09:00:35;3.75;;;2.35;;
71202;SDS011;58929;47.490;19.090;2023-04-02T09:03:05;2.42;;;2.00;;
71202;SDS011;58929;47.490;19.090;2023-04-02T09:05:38;3.38;;;2.38;;
71202;SDS011;58929;47.490;19.090;2023-04-02T09:08:08;2.30;;;2.00;;
71202;SDS011;58929;47.490;19.090;2023-04-02T09:10:43;2.25;;;2.05;;
71202;SDS011;58929;47.490;19.090;2023-04-02T09:13:13;2.60;;;1.60;;
71202;SDS011;58929;47.490;19.090;2023-04-02T09:15:43;2.17;;;1.80;;
71202;SDS011;58929;47.490;19.090;2023-04-02T09:18:12;3.33;;;2.10;;
71202;SDS011;58929;47.490;19.090;2023-04-02T09:20:42;5.97;;;2.00;;
71202;SDS011;58929;47.490;19.090;2023-04-02T09:23:11;3.78;;;2.78;;
71202;SDS011;58929;47.490;19.090;2023-04-02T09:25:42;3.35;;;2.05;;
71202;SDS011;58929;47.490;19.090;2023-04-02T09:28:26;2.30;;;1.85;;
71202;SDS011;58929;47.490;19.090;2023-04-02T09:30:57;3.30;;;2.20;;
71202;SDS011;58929;47.490;19.090;2023-04-02T09:33:39;2.28;;;2.00;;
71202;SDS011;58929;47.490;19.090;2023-04-02T09:36:09;5.70;;;2.47;;
71202;SDS011;58929;47.490;19.090;2023-04-02T09:38:55;5.80;;;2.40;;
71202;SDS011;58929;47.490;19.090;2023-04-02T09:41:24;2.80;;;2.33;;
71202;SDS011;58929;47.490;19.090;2023-04-02T09:46:36;3.67;;;2.20;;
71202;SDS011;58929;47.490;19.090;2023-04-02T09:49:04;2.13;;;1.92;;
71202;SDS011;58929;47.490;19.090;2023-04-02T09:51:34;4.05;;;1.90;;
71202;SDS011;58929;47.490;19.090;2023-04-02T09:54:06;3.97;;;1.95;;
71202;SDS011;58929;47.490;19.090;2023-04-02T09:56:36;2.60;;;1.92;;
71202;SDS011;58929;47.490;19.090;2023-04-02T09:59:05;2.75;;;2.00;;
71202;SDS011;58929;47.490;19.090;2023-04-02T10:01:34;4.15;;;2.78;;
71202;SDS011;58929;47.490;19.090;2023-04-02T10:04:05;3.47;;;2.60;;
71202;SDS011;58929;47.490;19.090;2023-04-02T10:06:36;2.67;;;2.00;;
71202;SDS011;58929;47.490;19.090;2023-04-02T10:09:17;5.18;;;1.85;;
71202;SDS011;58929;47.490;19.090;2023-04-02T10:11:46;2.15;;;1.80;;
71202;SDS011;58929;47.490;19.090;2023-04-02T10:14:15;3.72;;;3.17;;
71202;SDS011;58929;47.490;19.090;2023-04-02T10:16:46;3.33;;;2.38;;
71202;SDS011;58929;47.490;19.090;2023-04-02T10:19:17;2.38;;;1.88;;
71202;SDS011;58929;47.490;19.090;2023-04-02T10:21:50;2.50;;;2.05;;
71202;SDS011;58929;47.490;19.090;2023-04-02T10:24:18;2.70;;;1.90;;
71202;SDS011;58929;47.490;19.090;2023-04-02T10:26:49;4.30;;;2.03;;
71202;SDS011;58929;47.490;19.090;2023-04-02T10:32:08;3.35;;;1.88;;
71202;SDS011;58929;47.490;19.090;2023-04-02T10:34:40;1.83;;;1.73;;
71202;SDS011;58929;47.490;19.090;2023-04-02T10:37:18;2.45;;;1.92;;
71202;SDS011;58929;47.490;19.090;2023-04-02T10:39:54;3.38;;;2.17;;
71202;SDS011;58929;47.490;19.090;2023-04-02T10:42:25;3.15;;;2.53;;
71202;SDS011;58929;47.490;19.090;2023-04-02T10:44:53;2.67;;;2.00;;
71202;SDS011;58929;47.490;19.090;2023-04-02T10:47:26;2.72;;;2.30;;
71202;SDS011;58929;47.490;19.090;2023-04-02T10:49:59;3.63;;;2.00;;
71202;SDS011;58929;47.490;19.090;2023-04-02T10:52:34;3.15;;;2.50;;
71202;SDS011;58929;47.490;19.090;2023-04-02T10:55:05;2.67;;;2.25;;
71202;SDS011;58929;47.490;19.090;2023-04-02T10:57:40;3.53;;;2.90;;
71202;SDS011;58929;47.490;19.090;2023-04-02T11:00:14;2.58;;;2.25;;
71202;SDS011;58929;47.490;19.090;2023-04-02T11:02:45;5.28;;;2.60;;
71202;SDS011;58929;47.490;19.090;2023-04-02T11:05:17;3.15;;;2.50;;
71202;SDS011;58929;47.490;19.090;2023-04-02T11:07:54;5.53;;;2.10;;
71202;SDS011;58929;47.490;19.090;2023-04-02T11:10:24;4.95;;;2.40;;
71202;SDS011;58929;47.490;19.090;2023-04-02T11:12:54;3.10;;;2.20;;
71202;SDS011;58929;47.490;19.090;2023-04-02T11:15:23;3.05;;;2.20;;
71202;SDS011;58929;47.490;19.090;2023-04-02T11:17:51;2.88;;;2.20;;
71202;SDS011;58929;47.490;19.090;2023-04-02T11:20:40;3.10;;;2.28;;
71202;SDS011;58929;47.490;19.090;2023-04-02T11:23:11;3.28;;;2.08;;
71202;SDS011;58929;47.490;19.090;2023-04-02T11:25:40;5.57;;;2.05;;
71202;SDS011;58929;47.490;19.090;2023-04-02T11:28:12;3.80;;;1.80;;
71202;SDS011;58929;47.490;19.090;2023-04-02T11:30:40;2.78;;;1.98;;
71202;SDS011;58929;47.490;19.090;2023-04-02T11:33:22;3.95;;;1.55;;
71202;SDS011;58929;47.490;19.090;2023-04-02T11:36:02;1.58;;;1.45;;
71202;SDS011;58929;47.490;19.090;2023-04-02T11:44:17;2.05;;;1.48;;
71202;SDS011;58929;47.490;19.090;2023-04-02T11:46:48;1.95;;;1.50;;
71202;SDS011;58929;47.490;19.090;2023-04-02T11:49:33;2.15;;;1.73;;
71202;SDS011;58929;47.490;19.090;2023-04-02T11:52:02;3.20;;;1.80;;
71202;SDS011;58929;47.490;19.090;2023-04-02T11:54:38;9.02;;;6.22;;
71202;SDS011;58929;47.490;19.090;2023-04-02T11:57:09;2.28;;;1.80;;
71202;SDS011;58929;47.490;19.090;2023-04-02T11:59:40;3.25;;;1.80;;
71202;SDS011;58929;47.490;19.090;2023-04-02T12:02:12;2.03;;;1.67;;
71202;SDS011;58929;47.490;19.090;2023-04-02T12:07:36;2.53;;;1.95;;
71202;SDS011;58929;47.490;19.090;2023-04-02T12:10:18;3.13;;;1.55;;
71202;SDS011;58929;47.490;19.090;2023-04-02T12:12:47;1.92;;;1.73;;
71202;SDS011;58929;47.490;19.090;2023-04-02T12:15:35;3.38;;;1.35;;
71202;SDS011;58929;47.490;19.090;2023-04-02T12:18:08;1.75;;;1.55;;
71202;SDS011;58929;47.490;19.090;2023-04-02T12:20:37;2.53;;;1.20;;
71202;SDS011;58929;47.490;19.090;2023-04-02T12:23:11;1.00;;;1.00;;
71202;SDS011;58929;47.490;19.090;2023-04-02T12:25:42;1.45;;;1.13;;
71202;SDS011;58929;47.490;19.090;2023-04-02T12:28:13;2.08;;;1.77;;
71202;SDS011;58929;47.490;19.090;2023-04-02T12:30:44;1.20;;;1.10;;
71202;SDS011;58929;47.490;19.090;2023-04-02T12:33:14;1.17;;;1.08;;
71202;SDS011;58929;47.490;19.090;2023-04-02T12:35:42;2.97;;;0.95;;
71202;SDS011;58929;47.490;19.090;2023-04-02T12:38:18;1.88;;;1.05;;
71202;SDS011;58929;47.490;19.090;2023-04-02T12:40:52;4.90;;;1.27;;
71202;SDS011;58929;47.490;19.090;2023-04-02T12:43:24;2.10;;;1.60;;
71202;SDS011;58929;47.490;19.090;2023-04-02T12:45:55;1.67;;;1.38;;
71202;SDS011;58929;47.490;19.090;2023-04-02T12:48:24;2.53;;;1.58;;
71202;SDS011;58929;47.490;19.090;2023-04-02T12:50:55;3.60;;;2.15;;
71202;SDS011;58929;47.490;19.090;2023-04-02T12:53:23;2.55;;;1.35;;
71202;SDS011;58929;47.490;19.090;2023-04-02T12:55:53;4.75;;;1.40;;
71202;SDS011;58929;47.490;19.090;2023-04-02T12:58:23;1.42;;;1.33;;
71202;SDS011;58929;47.490;19.090;2023-04-02T13:00:51;1.85;;;1.35;;
71202;SDS011;58929;47.490;19.090;2023-04-02T13:03:21;3.08;;;1.75;;
71202;SDS011;58929;47.490;19.090;2023-04-02T13:05:50;1.83;;;1.30;;
71202;SDS011;58929;47.490;19.090;2023-04-02T13:08:21;3.05;;;1.52;;
71202;SDS011;58929;47.490;19.090;2023-04-02T13:10:53;5.63;;;1.70;;
71202;SDS011;58929;47.490;19.090;2023-04-02T13:13:24;2.35;;;1.50;;
71202;SDS011;58929;47.490;19.090;2023-04-02T13:16:00;1.33;;;1.23;;
71202;SDS011;58929;47.490;19.090;2023-04-02T13:18:31;1.77;;;1.40;;
71202;SDS011;58929;47.490;19.090;2023-04-02T13:21:22;1.77;;;1.65;;
71202;SDS011;58929;47.490;19.090;2023-04-02T13:23:54;1.70;;;1.23;;
71202;SDS011;58929;47.490;19.090;2023-04-02T13:26:22;7.32;;;1.33;;
71202;SDS011;58929;47.490;19.090;2023-04-02T13:28:58;3.67;;;1.70;;
71202;SDS011;58929;47.490;19.090;2023-04-02T13:31:26;1.60;;;1.50;;
71202;SDS011;58929;47.490;19.090;2023-04-02T13:33:56;2.20;;;1.30;;
71202;SDS011;58929;47.490;19.090;2023-04-02T13:36:24;1.30;;;1.20;;
71202;SDS011;58929;47.490;19.090;2023-04-02T13:38:54;2.60;;;1.23;;
71202;SDS011;58929;47.490;19.090;2023-04-02T13:41:24;1.52;;;1.27;;
71202;SDS011;58929;47.490;19.090;2023-04-02T13:43:53;2.30;;;1.40;;
71202;SDS011;58929;47.490;19.090;2023-04-02T13:46:21;1.42;;;1.33;;
71202;SDS011;58929;47.490;19.090;2023-04-02T13:48:50;1.85;;;1.30;;
71202;SDS011;58929;47.490;19.090;2023-04-02T13:51:20;2.00;;;1.10;;
71202;SDS011;58929;47.490;19.090;2023-04-02T13:53:50;3.05;;;1.65;;
71202;SDS011;58929;47.490;19.090;2023-04-02T13:56:19;0.80;;;0.80;;
71202;SDS011;58929;47.490;19.090;2023-04-02T13:58:48;0.95;;;0.88;;
71202;SDS011;58929;47.490;19.090;2023-04-02T14:01:16;4.43;;;1.05;;
71202;SDS011;58929;47.490;19.090;2023-04-02T14:03:44;0.98;;;0.90;;
71202;SDS011;58929;47.490;19.090;2023-04-02T14:06:13;0.70;;;0.70;;
71202;SDS011;58929;47.490;19.090;2023-04-02T14:08:50;0.80;;;0.80;;
71202;SDS011;58929;47.490;19.090;2023-04-02T14:11:25;1.27;;;0.80;;
71202;SDS011;58929;47.490;19.090;2023-04-02T14:16:48;2.80;;;1.08;;
71202;SDS011;58929;47.490;19.090;2023-04-02T14:19:26;1.45;;;1.17;;
71202;SDS011;58929;47.490;19.090;2023-04-02T14:21:59;1.48;;;1.20;;
71202;SDS011;58929;47.490;19.090;2023-04-02T14:24:32;1.17;;;1.00;;
71202;SDS011;58929;47.490;19.090;2023-04-02T14:27:09;4.18;;;1.17;;
71202;SDS011;58929;47.490;19.090;2023-04-02T14:29:40;1.30;;;0.90;;
71202;SDS011;58929;47.490;19.090;2023-04-02T14:32:10;1.10;;;1.00;;
71202;SDS011;58929;47.490;19.090;2023-04-02T14:34:44;0.88;;;0.88;;
71202;SDS011;58929;47.490;19.090;2023-04-02T14:37:17;4.43;;;1.23;;
71202;SDS011;58929;47.490;19.090;2023-04-02T14:39:51;1.15;;;0.82;;
71202;SDS011;58929;47.490;19.090;2023-04-02T14:42:25;1.80;;;1.70;;
71202;SDS011;58929;47.490;19.090;2023-04-02T14:44:56;1.80;;;1.70;;
71202;SDS011;58929;47.490;19.090;2023-04-02T14:47:26;1.85;;;1.60;;
71202;SDS011;58929;47.490;19.090;2023-04-02T14:49:56;3.83;;;1.90;;
71202;SDS011;58929;47.490;19.090;2023-04-02T14:52:26;2.15;;;1.70;;
71202;SDS011;58929;47.490;19.090;2023-04-02T14:54:58;3.58;;;1.40;;
71202;SDS011;58929;47.490;19.090;2023-04-02T14:57:28;5.18;;;1.45;;
71202;SDS011;58929;47.490;19.090;2023-04-02T14:59:59;3.20;;;1.70;;
71202;SDS011;58929;47.490;19.090;2023-04-02T15:02:33;2.25;;;1.80;;
71202;SDS011;58929;47.490;19.090;2023-04-02T15:05:06;1.40;;;1.30;;
71202;SDS011;58929;47.490;19.090;2023-04-02T15:07:38;2.08;;;1.42;;
71202;SDS011;58929;47.490;19.090;2023-04-02T15:10:13;4.65;;;1.73;;
71202;SDS011;58929;47.490;19.090;2023-04-02T15:12:43;2.25;;;1.55;;
71202;SDS011;58929;47.490;19.090;2023-04-02T15:15:15;1.83;;;1.70;;
71202;SDS011;58929;47.490;19.090;2023-04-02T15:17:52;2.10;;;1.80;;
71202;SDS011;58929;47.490;19.090;2023-04-02T15:20:20;2.33;;;2.13;;